createdAt,value
2019-01-16T00:02:11.334Z,99611.87
2019-01-16T00:04:42.315Z,99609.84
2019-01-16T00:07:31.267Z,99600.35
2019-01-16T00:10:09.882Z,99599.99
2019-01-16T00:12:45.648Z,99599.58
2019-01-16T00:15:33.639Z,99596.60
2019-01-16T00:18:16.981Z,99590.15
2019-01-16T00:20:52.976Z,99586.30
2019-01-16T00:23:34.077Z,99593.12
2019-01-16T00:26:07.459Z,99584.48
2019-01-16T00:28:43.911Z,99573.20
2019-01-16T00:31:14.276Z,99587.55
2019-01-16T00:33:59.832Z,99579.73
2019-01-16T00:36:38.995Z,99579.00
2019-01-16T00:39:15.935Z,99567.67
2019-01-16T00:42:02.530Z,99566.25
2019-01-16T00:44:35.241Z,99566.05
2019-01-16T00:50:18.416Z,99567.19
2019-01-16T00:52:48.731Z,99558.23
2019-01-16T00:58:18.611Z,99557.83
2019-01-16T01:00:54.769Z,99560.53
2019-01-16T01:03:28.006Z,99554.53
2019-01-16T01:06:14.654Z,99557.09
2019-01-16T01:08:45.304Z,99556.86
2019-01-16T01:11:15.577Z,99556.68
2019-01-16T01:13:49.025Z,99550.23
2019-01-16T01:16:22.607Z,99554.18
2019-01-16T01:18:55.952Z,99542.98
2019-01-16T01:21:29.638Z,99547.25
2019-01-16T01:24:02.390Z,99550.28
2019-01-16T01:26:44.746Z,99534.85
2019-01-16T01:29:15.114Z,99540.48
2019-01-16T01:32:01.720Z,99538.75
2019-01-16T01:34:46.741Z,99540.20
2019-01-16T01:37:20.011Z,99536.25
2019-01-16T01:39:56.343Z,99537.55
2019-01-16T01:42:26.430Z,99540.11
2019-01-16T01:45:02.670Z,99532.14
2019-01-16T01:47:36.384Z,99532.55
2019-01-16T01:50:27.738Z,99533.91
2019-01-16T01:53:12.967Z,99543.37
2019-01-16T01:55:46.045Z,99535.95
2019-01-16T01:58:16.195Z,99537.20
2019-01-16T02:00:49.420Z,99533.39
2019-01-16T02:03:34.332Z,99539.72
2019-01-16T02:06:04.503Z,99531.86
2019-01-16T02:08:40.761Z,99532.27
2019-01-16T02:11:11.022Z,99519.70
2019-01-16T02:13:49.714Z,99521.19
2019-01-16T02:16:36.311Z,99520.72
2019-01-16T02:19:09.739Z,99517.61
2019-01-16T02:21:56.344Z,99512.31
2019-01-16T02:24:43.026Z,99511.42
2019-01-16T02:27:13.340Z,99501.27
2019-01-16T02:29:43.539Z,99504.61
2019-01-16T02:32:28.931Z,99500.61
2019-01-16T02:35:16.877Z,99500.38
2019-01-16T02:37:50.350Z,99509.07
2019-01-16T02:40:20.759Z,99498.57
2019-01-16T02:43:00.137Z,99493.38
2019-01-16T02:45:46.600Z,99492.13
2019-01-16T02:48:16.921Z,99491.14
2019-01-16T02:50:47.068Z,99479.58
2019-01-16T02:53:19.702Z,99473.56
2019-01-16T02:55:49.771Z,99482.61
2019-01-16T02:58:25.562Z,99470.39
2019-01-16T03:01:12.107Z,99475.05
2019-01-16T03:03:53.715Z,99483.22
2019-01-16T03:06:39.973Z,99471.42
2019-01-16T03:09:16.086Z,99465.99
2019-01-16T03:11:46.193Z,99464.19
2019-01-16T03:14:31.468Z,99458.02
2019-01-16T03:17:03.996Z,99450.39
2019-01-16T03:19:36.757Z,99461.45
2019-01-16T03:22:12.319Z,99455.92
2019-01-16T03:24:51.564Z,99454.73
2019-01-16T03:27:27.544Z,99446.88
2019-01-16T03:29:57.816Z,99446.19
2019-01-16T03:32:28.055Z,99443.27
2019-01-16T03:35:03.966Z,99443.54
2019-01-16T03:37:42.919Z,99440.89
2019-01-16T03:40:28.089Z,99434.26
2019-01-16T03:42:58.255Z,99429.67
2019-01-16T03:45:44.319Z,99423.63
2019-01-16T03:48:17.208Z,99427.05
2019-01-16T03:50:50.037Z,99429.70
2019-01-16T03:53:28.568Z,99421.22
2019-01-16T03:55:58.705Z,99423.58
2019-01-16T03:58:31.762Z,99416.24
2019-01-16T04:01:14.390Z,99412.22
2019-01-16T04:03:44.719Z,99407.34
2019-01-16T04:06:29.786Z,99400.06
2019-01-16T04:09:11.364Z,99396.27
2019-01-16T04:11:50.088Z,99390.02
2019-01-16T04:14:38.238Z,99384.31
2019-01-16T04:17:13.862Z,99369.39
2019-01-16T04:19:43.892Z,99373.95
2019-01-16T04:25:23.089Z,99366.33
2019-01-16T04:27:53.169Z,99363.73
2019-01-16T04:30:29.255Z,99366.38
2019-01-16T04:32:59.274Z,99364.50
2019-01-16T04:35:29.322Z,99366.16
2019-01-16T04:38:02.027Z,99361.80
2019-01-16T04:40:32.044Z,99364.91
2019-01-16T04:43:04.991Z,99368.02
2019-01-16T04:45:51.154Z,99367.09
2019-01-16T04:48:24.281Z,99369.59
2019-01-16T04:51:10.118Z,99359.77
2019-01-16T04:53:56.026Z,99367.61
2019-01-16T04:56:35.434Z,99358.98
2019-01-16T04:59:11.571Z,99358.92
2019-01-16T05:01:41.681Z,99355.13
2019-01-16T05:04:14.736Z,99356.80
2019-01-16T05:06:50.284Z,99274.68
2019-01-16T05:09:23.273Z,99342.40
2019-01-16T05:12:11.078Z,99338.75
2019-01-16T05:14:52.786Z,99332.63
2019-01-16T05:17:22.814Z,99333.88
2019-01-16T05:19:52.810Z,99332.02
2019-01-16T05:22:35.179Z,99331.44
2019-01-16T05:25:05.321Z,99328.17
2019-01-16T05:27:51.535Z,99321.86
2019-01-16T05:30:21.594Z,99319.37
2019-01-16T05:32:51.623Z,99313.20
2019-01-16T05:35:27.621Z,99305.97
2019-01-16T05:38:00.431Z,99306.75
2019-01-16T05:40:45.370Z,99302.53
2019-01-16T05:43:21.408Z,99302.48
2019-01-16T05:46:03.238Z,99300.67
2019-01-16T05:48:39.307Z,99301.18
2019-01-16T05:51:12.083Z,99298.06
2019-01-16T05:53:56.991Z,99295.98
2019-01-16T05:56:27.088Z,99301.45
2019-01-16T05:59:00.199Z,99297.77
2019-01-16T06:01:33.279Z,99299.47
2019-01-16T06:04:12.137Z,99303.42
2019-01-16T06:06:54.128Z,99295.25
2019-01-16T06:09:32.928Z,99292.81
2019-01-16T06:12:02.966Z,99294.79
2019-01-16T06:14:41.943Z,99291.84
2019-01-16T06:17:11.990Z,99284.97
2019-01-16T06:19:42.005Z,99281.69
2019-01-16T06:22:30.547Z,99280.77
2019-01-16T06:25:03.495Z,99273.33
2019-01-16T06:27:39.500Z,99277.17
2019-01-16T06:30:21.465Z,99266.21
2019-01-16T06:32:57.019Z,99260.49
2019-01-16T06:35:29.744Z,99273.90
2019-01-16T06:38:15.883Z,99260.66
2019-01-16T06:40:51.809Z,99262.69
2019-01-16T06:43:21.872Z,99258.11
2019-01-16T06:45:54.421Z,99253.64
2019-01-16T06:48:24.545Z,99252.44
2019-01-16T06:51:06.757Z,99249.70
2019-01-16T06:53:36.785Z,99254.67
2019-01-16T06:56:23.516Z,99256.03
2019-01-16T06:58:53.660Z,99255.52
2019-01-16T07:01:35.695Z,99248.64
2019-01-16T07:04:08.889Z,99248.53
2019-01-16T07:06:57.151Z,99247.34
2019-01-16T07:09:33.308Z,99239.77
2019-01-16T07:12:19.163Z,99249.84
2019-01-16T07:14:49.305Z,99246.77
2019-01-16T07:17:19.306Z,99255.30
2019-01-16T07:19:49.350Z,99246.94
2019-01-16T07:22:19.350Z,99242.94
2019-01-16T07:24:52.113Z,99244.64
2019-01-16T07:27:25.966Z,99239.61
2019-01-16T07:30:12.415Z,99239.45
2019-01-16T07:32:46.795Z,99243.28
2019-01-16T07:35:17.064Z,99246.62
2019-01-16T07:37:47.088Z,99246.83
2019-01-16T07:40:20.226Z,99245.02
2019-01-16T07:42:59.238Z,99247.09
2019-01-16T07:45:29.702Z,99242.88
2019-01-16T07:47:59.960Z,99248.23
2019-01-16T07:50:32.663Z,99242.47
2019-01-16T07:53:14.291Z,99244.08
2019-01-16T07:55:56.420Z,99238.71
2019-01-16T07:58:26.419Z,99235.25
2019-01-16T08:01:02.173Z,99228.42
2019-01-16T08:03:32.250Z,99230.97
2019-01-16T08:06:02.552Z,99225.98
2019-01-16T08:08:32.545Z,99227.91
2019-01-16T08:11:02.569Z,99241.17
2019-01-16T08:13:38.809Z,99239.98
2019-01-16T08:16:12.053Z,99200.02
2019-01-16T08:18:58.091Z,99238.52
2019-01-16T08:21:31.263Z,99235.70
2019-01-16T08:24:10.449Z,99235.50
2019-01-16T08:26:46.477Z,99235.48
2019-01-16T08:29:16.547Z,99239.45
2019-01-16T08:31:55.656Z,99241.42
2019-01-16T08:34:25.838Z,99232.59
2019-01-16T08:37:11.850Z,99216.54
2019-01-16T08:39:57.233Z,99217.67
2019-01-16T08:42:39.550Z,99217.19
2019-01-16T08:45:14.392Z,99218.91
2019-01-16T08:47:59.502Z,99215.41
2019-01-16T08:50:32.886Z,99218.23
2019-01-16T08:53:03.098Z,99206.37
2019-01-16T08:55:45.376Z,99205.51
2019-01-16T08:58:21.278Z,99203.86
2019-01-16T09:01:07.841Z,99200.70
2019-01-16T09:03:37.905Z,99206.77
2019-01-16T09:06:11.165Z,99205.64
2019-01-16T09:08:59.594Z,99203.48
2019-01-16T09:11:32.293Z,99208.55
2019-01-16T09:14:02.359Z,99204.88
2019-01-16T09:16:35.579Z,99209.73
2019-01-16T09:19:08.957Z,99195.14
2019-01-16T09:21:54.104Z,99200.84
2019-01-16T09:24:26.724Z,99195.06
2019-01-16T09:27:12.983Z,99186.59
2019-01-16T09:29:55.023Z,99186.21
2019-01-16T09:32:40.727Z,99185.39
2019-01-16T09:35:24.118Z,99183.09
2019-01-16T09:38:00.037Z,99182.08
2019-01-16T09:40:33.029Z,99184.56
2019-01-16T09:43:05.927Z,99186.12
2019-01-16T09:45:44.948Z,99177.61
2019-01-16T09:48:17.836Z,99177.78
2019-01-16T09:50:59.618Z,99173.28
2019-01-16T09:53:29.741Z,99174.43
2019-01-16T09:55:59.780Z,99169.58
2019-01-16T09:58:29.948Z,99166.31
2019-01-16T10:01:00.214Z,99163.55
2019-01-16T10:03:30.327Z,99163.13
2019-01-16T10:06:12.323Z,99155.98
2019-01-16T10:08:48.233Z,99142.98
2019-01-16T10:11:30.232Z,99141.61
2019-01-16T10:14:16.361Z,99134.98
2019-01-16T10:16:56.082Z,99127.77
2019-01-16T10:19:31.836Z,99125.52
2019-01-16T10:22:04.723Z,99125.23
2019-01-16T10:24:40.284Z,99126.00
2019-01-16T10:27:14.734Z,99116.91
2019-01-16T10:29:44.882Z,99124.86
2019-01-16T10:32:31.607Z,99120.23
2019-01-16T10:35:04.922Z,99121.09
2019-01-16T10:37:35.414Z,99116.34
2019-01-16T10:40:06.712Z,99114.55
2019-01-16T10:42:45.909Z,99100.55
2019-01-16T10:45:16.005Z,99095.51
2019-01-16T10:48:01.344Z,99088.95
2019-01-16T10:50:50.341Z,99086.27
2019-01-16T10:53:32.461Z,99074.18
2019-01-16T10:56:17.946Z,99069.41
2019-01-16T10:58:53.454Z,99064.36
2019-01-16T11:01:39.005Z,99059.95
2019-01-16T11:04:27.575Z,99055.53
2019-01-16T11:07:14.904Z,99049.88
2019-01-16T11:09:58.707Z,99045.39
2019-01-16T11:12:29.036Z,99042.86
2019-01-16T11:15:06.500Z,99027.61
2019-01-16T11:17:43.187Z,99023.70
2019-01-16T11:20:20.290Z,99016.63
2019-01-16T11:23:07.282Z,99010.12
2019-01-16T11:25:55.737Z,99015.46
2019-01-16T11:28:25.828Z,99005.54
2019-01-16T11:31:14.429Z,99003.54
2019-01-16T11:33:59.559Z,98994.78
2019-01-16T11:36:35.757Z,98985.82
2019-01-16T11:39:25.015Z,98981.76
2019-01-16T11:41:56.206Z,98979.24
2019-01-16T11:44:43.150Z,98972.53
2019-01-16T11:47:16.321Z,98964.34
2019-01-16T11:49:52.325Z,98966.95
2019-01-16T11:52:29.289Z,98953.30
2019-01-16T11:55:19.570Z,98953.17
2019-01-16T11:57:59.884Z,98953.61
2019-01-16T12:00:33.238Z,98951.25
2019-01-16T12:03:04.181Z,98944.70
2019-01-16T12:05:46.486Z,98942.56
2019-01-16T12:08:16.969Z,98932.31
2019-01-16T12:10:50.383Z,98922.33
2019-01-16T12:13:36.783Z,98915.67
2019-01-16T12:16:08.138Z,98915.66
2019-01-16T12:18:54.029Z,98900.39
2019-01-16T12:21:38.486Z,98903.86
2019-01-16T12:24:11.468Z,98892.59
2019-01-16T12:26:58.690Z,98887.31
2019-01-16T12:29:28.940Z,98882.55
2019-01-16T12:32:07.941Z,98888.48
2019-01-16T12:34:43.839Z,98880.16
2019-01-16T12:37:14.408Z,98872.23
2019-01-16T12:39:44.605Z,98869.70
2019-01-16T12:42:17.858Z,98864.97
2019-01-16T12:45:05.704Z,98864.35
2019-01-16T12:47:44.582Z,98866.03
2019-01-16T12:50:16.074Z,98848.55
2019-01-16T12:52:53.934Z,98848.59
2019-01-16T12:55:34.972Z,98843.51
2019-01-16T12:58:21.529Z,98837.50
2019-01-16T13:00:51.738Z,98830.18
2019-01-16T13:03:37.770Z,98827.87
2019-01-16T13:06:30.778Z,98825.13
2019-01-16T13:09:16.160Z,98821.75
2019-01-16T13:11:57.931Z,98820.92
2019-01-16T13:14:30.112Z,98810.93
2019-01-16T13:16:59.850Z,98805.53
2019-01-16T13:19:45.947Z,98805.74
2019-01-16T13:22:18.811Z,98802.28
2019-01-16T13:24:51.305Z,98796.87
2019-01-16T13:27:30.322Z,98795.78
2019-01-16T13:30:00.448Z,98806.51
2019-01-16T13:32:46.802Z,98801.14
2019-01-16T13:35:19.827Z,98792.46
2019-01-16T13:37:52.378Z,98789.65
2019-01-16T13:40:25.031Z,98792.27
2019-01-16T13:43:13.168Z,98791.33
2019-01-16T13:45:48.957Z,98786.77
2019-01-16T13:48:25.148Z,98788.44
2019-01-16T13:50:55.420Z,98789.36
2019-01-16T13:53:40.518Z,98785.21
2019-01-16T13:56:10.625Z,98775.48
2019-01-16T13:58:46.423Z,98777.55
2019-01-16T14:01:27.191Z,98777.42
2019-01-16T14:04:02.748Z,98772.19
2019-01-16T14:06:32.736Z,98773.19
2019-01-16T14:09:15.873Z,98768.38
2019-01-16T14:12:04.801Z,98766.92
2019-01-16T14:14:36.067Z,98759.91
2019-01-16T14:17:09.382Z,98762.08
2019-01-16T14:19:39.488Z,98754.05
2019-01-16T14:22:25.925Z,98756.05
2019-01-16T14:25:08.144Z,98756.41
